sensor_id;sensor_type;location;lat;lon;timestamp;P1;durP1;ratioP1;P2;durP2;ratioP2
19758;SDS011;10038;42.662;23.278;2023-04-19T00:01:31;1.60;;;1.40;;
19758;SDS011;10038;42.662;23.278;2023-04-19T00:03:58;3.17;;;1.53;;
19758;SDS011;10038;42.662;23.278;2023-04-19T00:06:25;1.83;;;1.30;;
19758;SDS011;10038;42.662;23.278;2023-04-19T00:08:56;2.10;;;1.40;;
19758;SDS011;10038;42.662;23.278;2023-04-19T00:11:23;2.83;;;1.37;;
19758;SDS011;10038;42.662;23.278;2023-04-19T00:13:50;5.40;;;1.50;;
19758;SDS011;10038;42.662;23.278;2023-04-19T00:16:17;1.43;;;1.20;;
19758;SDS011;10038;42.662;23.278;2023-04-19T00:18:44;4.50;;;1.83;;
19758;SDS011;10038;42.662;23.278;2023-04-19T00:21:12;2.03;;;1.40;;
19758;SDS011;10038;42.662;23.278;2023-04-19T00:23:39;2.07;;;1.77;;
19758;SDS011;10038;42.662;23.278;2023-04-19T00:26:08;2.60;;;1.57;;
19758;SDS011;10038;42.662;23.278;2023-04-19T00:28:37;3.53;;;1.70;;
19758;SDS011;10038;42.662;23.278;2023-04-19T00:31:04;2.33;;;1.90;;
19758;SDS011;10038;42.662;23.278;2023-04-19T00:33:31;2.70;;;1.77;;
19758;SDS011;10038;42.662;23.278;2023-04-19T00:35:58;3.37;;;2.07;;
19758;SDS011;10038;42.662;23.278;2023-04-19T00:38:25;3.40;;;1.40;;
19758;SDS011;10038;42.662;23.278;2023-04-19T00:40:52;2.00;;;1.57;;
19758;SDS011;10038;42.662;23.278;2023-04-19T00:43:21;2.20;;;1.70;;
19758;SDS011;10038;42.662;23.278;2023-04-19T00:45:48;2.40;;;1.70;;
19758;SDS011;10038;42.662;23.278;2023-04-19T00:48:15;4.63;;;2.23;;
19758;SDS011;10038;42.662;23.278;2023-04-19T00:50:42;2.20;;;2.00;;
19758;SDS011;10038;42.662;23.278;2023-04-19T00:53:10;2.07;;;1.87;;
19758;SDS011;10038;42.662;23.278;2023-04-19T00:55:38;2.80;;;1.90;;
19758;SDS011;10038;42.662;23.278;2023-04-19T00:58:05;2.10;;;1.70;;
19758;SDS011;10038;42.662;23.278;2023-04-19T01:00:36;2.33;;;1.40;;
19758;SDS011;10038;42.662;23.278;2023-04-19T01:03:03;3.40;;;1.37;;
19758;SDS011;10038;42.662;23.278;2023-04-19T01:05:30;2.43;;;1.30;;
19758;SDS011;10038;42.662;23.278;2023-04-19T01:07:57;1.93;;;1.43;;
19758;SDS011;10038;42.662;23.278;2023-04-19T01:10:24;1.87;;;1.47;;
19758;SDS011;10038;42.662;23.278;2023-04-19T01:12:52;2.90;;;1.87;;
19758;SDS011;10038;42.662;23.278;2023-04-19T01:15:19;1.60;;;1.30;;
19758;SDS011;10038;42.662;23.278;2023-04-19T01:17:48;2.40;;;1.50;;
19758;SDS011;10038;42.662;23.278;2023-04-19T01:20:15;1.67;;;1.57;;
19758;SDS011;10038;42.662;23.278;2023-04-19T01:22:43;2.23;;;1.67;;
19758;SDS011;10038;42.662;23.278;2023-04-19T01:25:10;2.63;;;1.70;;
19758;SDS011;10038;42.662;23.278;2023-04-19T01:27:37;2.30;;;1.80;;
19758;SDS011;10038;42.662;23.278;2023-04-19T01:30:05;2.43;;;1.80;;
19758;SDS011;10038;42.662;23.278;2023-04-19T01:32:33;2.37;;;2.00;;
19758;SDS011;10038;42.662;23.278;2023-04-19T01:35:00;2.10;;;1.73;;
19758;SDS011;10038;42.662;23.278;2023-04-19T01:37:27;2.50;;;2.27;;
19758;SDS011;10038;42.662;23.278;2023-04-19T01:39:55;2.70;;;2.10;;
19758;SDS011;10038;42.662;23.278;2023-04-19T01:42:22;3.60;;;2.43;;
19758;SDS011;10038;42.662;23.278;2023-04-19T01:44:49;2.63;;;1.93;;
19758;SDS011;10038;42.662;23.278;2023-04-19T01:47:16;3.23;;;1.93;;
19758;SDS011;10038;42.662;23.278;2023-04-19T01:49:43;2.10;;;1.80;;
19758;SDS011;10038;42.662;23.278;2023-04-19T01:52:10;2.20;;;1.80;;
19758;SDS011;10038;42.662;23.278;2023-04-19T01:54:37;5.97;;;2.07;;
19758;SDS011;10038;42.662;23.278;2023-04-19T01:57:06;2.63;;;1.77;;
19758;SDS011;10038;42.662;23.278;2023-04-19T01:59:33;2.30;;;1.83;;
19758;SDS011;10038;42.662;23.278;2023-04-19T02:02:00;2.70;;;2.20;;
19758;SDS011;10038;42.662;23.278;2023-04-19T02:04:39;2.30;;;2.10;;
19758;SDS011;10038;42.662;23.278;2023-04-19T02:07:06;3.57;;;2.43;;
19758;SDS011;10038;42.662;23.278;2023-04-19T02:09:34;2.37;;;2.13;;
19758;SDS011;10038;42.662;23.278;2023-04-19T02:12:01;5.43;;;2.20;;
19758;SDS011;10038;42.662;23.278;2023-04-19T02:14:30;2.40;;;2.00;;
19758;SDS011;10038;42.662;23.278;2023-04-19T02:16:57;3.80;;;2.53;;
19758;SDS011;10038;42.662;23.278;2023-04-19T02:19:24;4.60;;;2.30;;
19758;SDS011;10038;42.662;23.278;2023-04-19T02:21:51;3.80;;;2.90;;
19758;SDS011;10038;42.662;23.278;2023-04-19T02:24:21;3.50;;;2.67;;
19758;SDS011;10038;42.662;23.278;2023-04-19T02:26:48;3.10;;;2.80;;
19758;SDS011;10038;42.662;23.278;2023-04-19T02:29:17;4.30;;;3.23;;
19758;SDS011;10038;42.662;23.278;2023-04-19T02:31:45;2.97;;;2.67;;
19758;SDS011;10038;42.662;23.278;2023-04-19T02:34:12;3.07;;;2.77;;
19758;SDS011;10038;42.662;23.278;2023-04-19T02:36:39;3.33;;;2.70;;
19758;SDS011;10038;42.662;23.278;2023-04-19T02:39:06;5.23;;;3.13;;
19758;SDS011;10038;42.662;23.278;2023-04-19T02:41:33;5.90;;;3.20;;
19758;SDS011;10038;42.662;23.278;2023-04-19T02:44:00;3.13;;;2.93;;
19758;SDS011;10038;42.662;23.278;2023-04-19T02:46:27;3.50;;;3.20;;
19758;SDS011;10038;42.662;23.278;2023-04-19T02:48:56;4.37;;;3.27;;
19758;SDS011;10038;42.662;23.278;2023-04-19T02:51:23;3.63;;;3.33;;
19758;SDS011;10038;42.662;23.278;2023-04-19T02:53:51;5.80;;;3.27;;
19758;SDS011;10038;42.662;23.278;2023-04-19T02:56:18;3.30;;;2.73;;
19758;SDS011;10038;42.662;23.278;2023-04-19T02:58:45;3.60;;;3.03;;
19758;SDS011;10038;42.662;23.278;2023-04-19T03:01:12;4.23;;;3.70;;
19758;SDS011;10038;42.662;23.278;2023-04-19T03:03:39;3.20;;;2.87;;
19758;SDS011;10038;42.662;23.278;2023-04-19T03:06:08;4.67;;;3.50;;
19758;SDS011;10038;42.662;23.278;2023-04-19T03:08:35;3.80;;;3.00;;
19758;SDS011;10038;42.662;23.278;2023-04-19T03:11:02;7.43;;;4.30;;
19758;SDS011;10038;42.662;23.278;2023-04-19T03:13:29;4.80;;;2.97;;
19758;SDS011;10038;42.662;23.278;2023-04-19T03:15:56;4.10;;;3.70;;
19758;SDS011;10038;42.662;23.278;2023-04-19T03:18:23;4.70;;;3.60;;
19758;SDS011;10038;42.662;23.278;2023-04-19T03:20:50;6.33;;;3.93;;
19758;SDS011;10038;42.662;23.278;2023-04-19T03:23:18;3.43;;;3.13;;
19758;SDS011;10038;42.662;23.278;2023-04-19T03:25:49;6.53;;;3.90;;
19758;SDS011;10038;42.662;23.278;2023-04-19T03:28:16;4.10;;;3.53;;
19758;SDS011;10038;42.662;23.278;2023-04-19T03:30:43;5.17;;;3.70;;
19758;SDS011;10038;42.662;23.278;2023-04-19T03:33:10;3.43;;;3.03;;
19758;SDS011;10038;42.662;23.278;2023-04-19T03:35:37;6.53;;;4.50;;
19758;SDS011;10038;42.662;23.278;2023-04-19T03:38:04;4.67;;;4.00;;
19758;SDS011;10038;42.662;23.278;2023-04-19T03:40:33;8.33;;;3.23;;
19758;SDS011;10038;42.662;23.278;2023-04-19T03:43:02;3.63;;;3.20;;
19758;SDS011;10038;42.662;23.278;2023-04-19T03:45:29;4.50;;;3.60;;
19758;SDS011;10038;42.662;23.278;2023-04-19T03:47:56;5.10;;;4.50;;
19758;SDS011;10038;42.662;23.278;2023-04-19T03:50:23;4.70;;;3.70;;
19758;SDS011;10038;42.662;23.278;2023-04-19T03:52:50;5.07;;;3.57;;
19758;SDS011;10038;42.662;23.278;2023-04-19T03:55:18;5.33;;;4.27;;
19758;SDS011;10038;42.662;23.278;2023-04-19T03:57:47;3.80;;;3.40;;
19758;SDS011;10038;42.662;23.278;2023-04-19T04:00:14;3.63;;;3.23;;
19758;SDS011;10038;42.662;23.278;2023-04-19T04:02:41;3.90;;;3.50;;
19758;SDS011;10038;42.662;23.278;2023-04-19T04:05:09;4.87;;;3.50;;
19758;SDS011;10038;42.662;23.278;2023-04-19T04:07:35;4.47;;;3.50;;
19758;SDS011;10038;42.662;23.278;2023-04-19T04:10:03;6.67;;;3.60;;
19758;SDS011;10038;42.662;23.278;2023-04-19T04:12:30;4.10;;;3.40;;
19758;SDS011;10038;42.662;23.278;2023-04-19T04:14:59;4.20;;;3.77;;
19758;SDS011;10038;42.662;23.278;2023-04-19T04:17:26;5.37;;;4.43;;
19758;SDS011;10038;42.662;23.278;2023-04-19T04:19:53;5.77;;;4.20;;
19758;SDS011;10038;42.662;23.278;2023-04-19T04:22:20;4.47;;;4.03;;
19758;SDS011;10038;42.662;23.278;2023-04-19T04:24:47;4.53;;;3.90;;
19758;SDS011;10038;42.662;23.278;2023-04-19T04:27:14;6.97;;;4.00;;
19758;SDS011;10038;42.662;23.278;2023-04-19T04:29:44;5.17;;;3.67;;
19758;SDS011;10038;42.662;23.278;2023-04-19T04:32:12;5.53;;;4.60;;
19758;SDS011;10038;42.662;23.278;2023-04-19T04:34:42;4.67;;;4.27;;
19758;SDS011;10038;42.662;23.278;2023-04-19T04:37:09;4.83;;;3.83;;
19758;SDS011;10038;42.662;23.278;2023-04-19T04:39:36;4.13;;;3.73;;
19758;SDS011;10038;42.662;23.278;2023-04-19T04:42:04;4.90;;;4.00;;
19758;SDS011;10038;42.662;23.278;2023-04-19T04:44:33;6.33;;;4.13;;
19758;SDS011;10038;42.662;23.278;2023-04-19T04:47:00;4.00;;;3.23;;
19758;SDS011;10038;42.662;23.278;2023-04-19T04:49:28;3.80;;;3.43;;
19758;SDS011;10038;42.662;23.278;2023-04-19T04:51:56;3.67;;;3.37;;
19758;SDS011;10038;42.662;23.278;2023-04-19T04:54:23;3.77;;;3.40;;
19758;SDS011;10038;42.662;23.278;2023-04-19T04:56:50;5.50;;;3.70;;
19758;SDS011;10038;42.662;23.278;2023-04-19T04:59:17;6.93;;;3.40;;
19758;SDS011;10038;42.662;23.278;2023-04-19T05:01:44;5.90;;;3.97;;
19758;SDS011;10038;42.662;23.278;2023-04-19T05:04:11;4.77;;;3.50;;
19758;SDS011;10038;42.662;23.278;2023-04-19T05:06:39;4.77;;;3.17;;
19758;SDS011;10038;42.662;23.278;2023-04-19T05:09:06;6.37;;;4.20;;
19758;SDS011;10038;42.662;23.278;2023-04-19T05:11:33;6.50;;;4.80;;
19758;SDS011;10038;42.662;23.278;2023-04-19T05:14:00;5.27;;;4.53;;
19758;SDS011;10038;42.662;23.278;2023-04-19T05:16:28;4.50;;;3.80;;
19758;SDS011;10038;42.662;23.278;2023-04-19T05:18:55;5.57;;;4.30;;
19758;SDS011;10038;42.662;23.278;2023-04-19T05:21:22;5.20;;;3.93;;
19758;SDS011;10038;42.662;23.278;2023-04-19T05:23:50;5.00;;;3.50;;
19758;SDS011;10038;42.662;23.278;2023-04-19T05:26:18;5.50;;;4.70;;
19758;SDS011;10038;42.662;23.278;2023-04-19T05:28:45;8.90;;;3.87;;
19758;SDS011;10038;42.662;23.278;2023-04-19T05:31:12;4.77;;;3.77;;
19758;SDS011;10038;42.662;23.278;2023-04-19T05:33:39;5.23;;;3.90;;
19758;SDS011;10038;42.662;23.278;2023-04-19T05:36:07;4.90;;;3.43;;
19758;SDS011;10038;42.662;23.278;2023-04-19T05:38:34;9.20;;;3.77;;
19758;SDS011;10038;42.662;23.278;2023-04-19T05:41:02;4.10;;;3.47;;
19758;SDS011;10038;42.662;23.278;2023-04-19T05:43:30;5.77;;;3.80;;
19758;SDS011;10038;42.662;23.278;2023-04-19T05:45:57;5.70;;;4.30;;
19758;SDS011;10038;42.662;23.278;2023-04-19T05:48:24;6.07;;;4.40;;
19758;SDS011;10038;42.662;23.278;2023-04-19T05:50:51;8.80;;;5.40;;
19758;SDS011;10038;42.662;23.278;2023-04-19T05:53:20;5.70;;;5.10;;
19758;SDS011;10038;42.662;23.278;2023-04-19T05:55:47;6.50;;;4.27;;
19758;SDS011;10038;42.662;23.278;2023-04-19T05:58:17;6.70;;;4.13;;
19758;SDS011;10038;42.662;23.278;2023-04-19T06:00:44;5.70;;;4.90;;
19758;SDS011;10038;42.662;23.278;2023-04-19T06:03:20;5.03;;;4.23;;
19758;SDS011;10038;42.662;23.278;2023-04-19T06:05:53;7.17;;;5.00;;
19758;SDS011;10038;42.662;23.278;2023-04-19T06:08:21;8.70;;;4.77;;
19758;SDS011;10038;42.662;23.278;2023-04-19T06:10:48;5.47;;;4.30;;
19758;SDS011;10038;42.662;23.278;2023-04-19T06:13:15;7.40;;;5.70;;
19758;SDS011;10038;42.662;23.278;2023-04-19T06:15:44;8.30;;;4.60;;
19758;SDS011;10038;42.662;23.278;2023-04-19T06:18:11;4.20;;;3.73;;
19758;SDS011;10038;42.662;23.278;2023-04-19T06:20:38;9.63;;;3.73;;
19758;SDS011;10038;42.662;23.278;2023-04-19T06:23:06;5.33;;;4.20;;
19758;SDS011;10038;42.662;23.278;2023-04-19T06:25:48;6.17;;;4.67;;
19758;SDS011;10038;42.662;23.278;2023-04-19T06:28:15;4.63;;;4.07;;
19758;SDS011;10038;42.662;23.278;2023-04-19T06:30:43;4.80;;;3.57;;
19758;SDS011;10038;42.662;23.278;2023-04-19T06:33:10;5.37;;;3.70;;
19758;SDS011;10038;42.662;23.278;2023-04-19T06:35:37;5.50;;;3.80;;
19758;SDS011;10038;42.662;23.278;2023-04-19T06:38:04;3.83;;;3.43;;
19758;SDS011;10038;42.662;23.278;2023-04-19T06:40:32;4.77;;;3.97;;
19758;SDS011;10038;42.662;23.278;2023-04-19T06:42:59;4.70;;;3.30;;
19758;SDS011;10038;42.662;23.278;2023-04-19T06:45:26;4.83;;;3.23;;
19758;SDS011;10038;42.662;23.278;2023-04-19T06:47:54;3.90;;;3.20;;
19758;SDS011;10038;42.662;23.278;2023-04-19T06:50:21;4.07;;;3.53;;
19758;SDS011;10038;42.662;23.278;2023-04-19T06:52:48;5.97;;;3.30;;
19758;SDS011;10038;42.662;23.278;2023-04-19T06:55:15;4.43;;;3.20;;
19758;SDS011;10038;42.662;23.278;2023-04-19T06:57:42;4.50;;;3.60;;
19758;SDS011;10038;42.662;23.278;2023-04-19T07:00:10;4.80;;;3.23;;
19758;SDS011;10038;42.662;23.278;2023-04-19T07:02:38;3.60;;;2.97;;
19758;SDS011;10038;42.662;23.278;2023-04-19T07:05:06;4.50;;;4.07;;
19758;SDS011;10038;42.662;23.278;2023-04-19T07:07:33;3.87;;;2.90;;
19758;SDS011;10038;42.662;23.278;2023-04-19T07:10:02;4.20;;;3.30;;
19758;SDS011;10038;42.662;23.278;2023-04-19T07:12:29;3.53;;;3.13;;
19758;SDS011;10038;42.662;23.278;2023-04-19T07:14:56;3.20;;;2.90;;
19758;SDS011;10038;42.662;23.278;2023-04-19T07:17:23;2.77;;;2.57;;
19758;SDS011;10038;42.662;23.278;2023-04-19T07:19:50;4.60;;;2.90;;
19758;SDS011;10038;42.662;23.278;2023-04-19T07:22:19;4.57;;;3.77;;
19758;SDS011;10038;42.662;23.278;2023-04-19T07:24:46;3.53;;;2.50;;
19758;SDS011;10038;42.662;23.278;2023-04-19T07:27:16;4.50;;;3.00;;
19758;SDS011;10038;42.662;23.278;2023-04-19T07:29:44;3.10;;;2.80;;
19758;SDS011;10038;42.662;23.278;2023-04-19T07:32:20;5.13;;;3.43;;
19758;SDS011;10038;42.662;23.278;2023-04-19T07:34:47;4.30;;;2.87;;
19758;SDS011;10038;42.662;23.278;2023-04-19T07:37:15;3.80;;;3.23;;
19758;SDS011;10038;42.662;23.278;2023-04-19T07:39:44;4.50;;;3.60;;
19758;SDS011;10038;42.662;23.278;2023-04-19T07:42:11;3.87;;;3.30;;
19758;SDS011;10038;42.662;23.278;2023-04-19T07:44:38;5.03;;;3.60;;
19758;SDS011;10038;42.662;23.278;2023-04-19T07:47:05;4.90;;;3.60;;
19758;SDS011;10038;42.662;23.278;2023-04-19T07:49:32;5.50;;;3.63;;
19758;SDS011;10038;42.662;23.278;2023-04-19T07:51:59;4.13;;;3.50;;
19758;SDS011;10038;42.662;23.278;2023-04-19T07:54:27;5.30;;;2.63;;
19758;SDS011;10038;42.662;23.278;2023-04-19T07:56:55;5.63;;;2.80;;
19758;SDS011;10038;42.662;23.278;2023-04-19T07:59:23;4.27;;;3.57;;
19758;SDS011;10038;42.662;23.278;2023-04-19T08:01:53;8.23;;;3.60;;
19758;SDS011;10038;42.662;23.278;2023-04-19T08:04:20;3.60;;;3.13;;
19758;SDS011;10038;42.662;23.278;2023-04-19T08:07:16;4.50;;;2.80;;
19758;SDS011;10038;42.662;23.278;2023-04-19T08:09:46;3.60;;;2.93;;
19758;SDS011;10038;42.662;23.278;2023-04-19T08:12:18;4.07;;;3.50;;
19758;SDS011;10038;42.662;23.278;2023-04-19T08:14:52;3.60;;;3.30;;
19758;SDS011;10038;42.662;23.278;2023-04-19T08:17:25;3.90;;;3.50;;
19758;SDS011;10038;42.662;23.278;2023-04-19T08:19:55;3.80;;;2.80;;
19758;SDS011;10038;42.662;23.278;2023-04-19T08:22:25;3.63;;;3.20;;
19758;SDS011;10038;42.662;23.278;2023-04-19T08:24:53;3.23;;;2.93;;
19758;SDS011;10038;42.662;23.278;2023-04-19T08:27:22;4.43;;;2.93;;
19758;SDS011;10038;42.662;23.278;2023-04-19T08:29:51;3.47;;;2.90;;
19758;SDS011;10038;42.662;23.278;2023-04-19T08:32:18;5.90;;;4.40;;
19758;SDS011;10038;42.662;23.278;2023-04-19T08:34:45;3.77;;;3.13;;
19758;SDS011;10038;42.662;23.278;2023-04-19T08:37:12;3.20;;;2.60;;
19758;SDS011;10038;42.662;23.278;2023-04-19T08:39:39;4.53;;;4.03;;
19758;SDS011;10038;42.662;23.278;2023-04-19T08:42:09;5.87;;;4.10;;
19758;SDS011;10038;42.662;23.278;2023-04-19T08:44:38;7.90;;;6.10;;
19758;SDS011;10038;42.662;23.278;2023-04-19T08:47:07;8.40;;;5.40;;
19758;SDS011;10038;42.662;23.278;2023-04-19T08:49:36;4.70;;;3.70;;
19758;SDS011;10038;42.662;23.278;2023-04-19T08:52:05;8.13;;;6.90;;
19758;SDS011;10038;42.662;23.278;2023-04-19T08:54:34;10.40;;;7.53;;
19758;SDS011;10038;42.662;23.278;2023-04-19T08:57:01;7.80;;;3.97;;
19758;SDS011;10038;42.662;23.278;2023-04-19T08:59:28;3.43;;;3.07;;
19758;SDS011;10038;42.662;23.278;2023-04-19T09:01:59;4.47;;;3.07;;
19758;SDS011;10038;42.662;23.278;2023-04-19T09:04:26;4.40;;;3.50;;
19758;SDS011;10038;42.662;23.278;2023-04-19T09:06:53;3.40;;;3.00;;
19758;SDS011;10038;42.662;23.278;2023-04-19T09:09:21;3.77;;;3.40;;
19758;SDS011;10038;42.662;23.278;2023-04-19T09:11:51;4.00;;;2.87;;
19758;SDS011;10038;42.662;23.278;2023-04-19T09:14:18;3.73;;;2.40;;
19758;SDS011;10038;42.662;23.278;2023-04-19T09:16:47;3.10;;;2.27;;
19758;SDS011;10038;42.662;23.278;2023-04-19T09:19:17;2.50;;;2.23;;
19758;SDS011;10038;42.662;23.278;2023-04-19T09:21:45;3.57;;;2.43;;
19758;SDS011;10038;42.662;23.278;2023-04-19T09:24:15;2.77;;;2.20;;
19758;SDS011;10038;42.662;23.278;2023-04-19T09:26:52;2.87;;;2.57;;
19758;SDS011;10038;42.662;23.278;2023-04-19T09:29:21;2.93;;;2.63;;
19758;SDS011;10038;42.662;23.278;2023-04-19T09:31:55;2.17;;;1.97;;
19758;SDS011;10038;42.662;23.278;2023-04-19T09:34:24;3.93;;;2.30;;
19758;SDS011;10038;42.662;23.278;2023-04-19T09:36:53;3.03;;;2.00;;
19758;SDS011;10038;42.662;23.278;2023-04-19T09:39:27;2.47;;;2.10;;
19758;SDS011;10038;42.662;23.278;2023-04-19T09:41:55;2.50;;;2.30;;
19758;SDS011;10038;42.662;23.278;2023-04-19T09:44:23;2.37;;;2.17;;
19758;SDS011;10038;42.662;23.278;2023-04-19T09:46:50;2.83;;;2.30;;
19758;SDS011;10038;42.662;23.278;2023-04-19T09:49:18;2.40;;;2.20;;
19758;SDS011;10038;42.662;23.278;2023-04-19T09:51:49;2.80;;;2.60;;
19758;SDS011;10038;42.662;23.278;2023-04-19T09:54:17;3.30;;;2.00;;
19758;SDS011;10038;42.662;23.278;2023-04-19T09:56:45;3.33;;;3.00;;
19758;SDS011;10038;42.662;23.278;2023-04-19T09:59:13;2.67;;;2.47;;
19758;SDS011;10038;42.662;23.278;2023-04-19T10:01:42;3.33;;;3.03;;
19758;SDS011;10038;42.662;23.278;2023-04-19T10:04:10;3.03;;;2.33;;
19758;SDS011;10038;42.662;23.278;2023-04-19T10:06:39;2.50;;;2.20;;
19758;SDS011;10038;42.662;23.278;2023-04-19T10:09:08;2.90;;;2.60;;
19758;SDS011;10038;42.662;23.278;2023-04-19T10:11:35;2.70;;;1.97;;
19758;SDS011;10038;42.662;23.278;2023-04-19T10:14:05;2.90;;;2.57;;
19758;SDS011;10038;42.662;23.278;2023-04-19T10:16:33;11.90;;;8.13;;
19758;SDS011;10038;42.662;23.278;2023-04-19T10:19:01;9.07;;;6.03;;
19758;SDS011;10038;42.662;23.278;2023-04-19T10:21:29;24.43;;;16.37;;
19758;SDS011;10038;42.662;23.278;2023-04-19T10:23:57;6.30;;;5.00;;
19758;SDS011;10038;42.662;23.278;2023-04-19T10:26:26;9.93;;;7.27;;
19758;SDS011;10038;42.662;23.278;2023-04-19T10:28:53;8.07;;;6.67;;
19758;SDS011;10038;42.662;23.278;2023-04-19T10:31:23;3.40;;;3.03;;
19758;SDS011;10038;42.662;23.278;2023-04-19T10:33:51;2.57;;;2.00;;
19758;SDS011;10038;42.662;23.278;2023-04-19T10:36:19;7.70;;;5.77;;
19758;SDS011;10038;42.662;23.278;2023-04-19T10:38:46;2.60;;;2.40;;
19758;SDS011;10038;42.662;23.278;2023-04-19T10:41:16;3.93;;;3.50;;
19758;SDS011;10038;42.662;23.278;2023-04-19T10:43:46;7.00;;;4.27;;
19758;SDS011;10038;42.662;23.278;2023-04-19T10:46:14;2.13;;;1.93;;
19758;SDS011;10038;42.662;23.278;2023-04-19T10:49:03;2.40;;;1.70;;
19758;SDS011;10038;42.662;23.278;2023-04-19T10:51:32;3.70;;;2.27;;
19758;SDS011;10038;42.662;23.278;2023-04-19T10:54:01;17.20;;;10.70;;
19758;SDS011;10038;42.662;23.278;2023-04-19T10:59:26;15.40;;;12.10;;
19758;SDS011;10038;42.662;23.278;2023-04-19T11:01:58;13.17;;;7.40;;
19758;SDS011;10038;42.662;23.278;2023-04-19T11:07:37;3.93;;;2.20;;
19758;SDS011;10038;42.662;23.278;2023-04-19T11:10:06;14.03;;;10.53;;
19758;SDS011;10038;42.662;23.278;2023-04-19T11:12:35;13.83;;;7.30;;
19758;SDS011;10038;42.662;23.278;2023-04-19T11:15:04;19.13;;;14.60;;
19758;SDS011;10038;42.662;23.278;2023-04-19T11:17:33;44.03;;;26.20;;
19758;SDS011;10038;42.662;23.278;2023-04-19T11:20:03;37.10;;;23.53;;
19758;SDS011;10038;42.662;23.278;2023-04-19T11:22:32;15.10;;;10.00;;
19758;SDS011;10038;42.662;23.278;2023-04-19T11:25:04;7.00;;;6.30;;
19758;SDS011;10038;42.662;23.278;2023-04-19T11:27:31;12.53;;;10.90;;
19758;SDS011;10038;42.662;23.278;2023-04-19T11:30:04;9.07;;;7.60;;
19758;SDS011;10038;42.662;23.278;2023-04-19T11:32:32;3.30;;;3.00;;
19758;SDS011;10038;42.662;23.278;2023-04-19T11:35:04;7.97;;;6.30;;
19758;SDS011;10038;42.662;23.278;2023-04-19T11:37:33;3.83;;;3.53;;
19758;SDS011;10038;42.662;23.278;2023-04-19T11:40:00;3.83;;;3.47;;
19758;SDS011;10038;42.662;23.278;2023-04-19T11:42:28;3.67;;;3.37;;
19758;SDS011;10038;42.662;23.278;2023-04-19T11:44:56;2.27;;;2.07;;
19758;SDS011;10038;42.662;23.278;2023-04-19T11:47:25;5.70;;;2.80;;
19758;SDS011;10038;42.662;23.278;2023-04-19T11:49:53;3.87;;;3.50;;
19758;SDS011;10038;42.662;23.278;2023-04-19T11:52:21;12.57;;;10.00;;
19758;SDS011;10038;42.662;23.278;2023-04-19T11:54:50;10.33;;;8.50;;
19758;SDS011;10038;42.662;23.278;2023-04-19T11:57:26;10.77;;;9.67;;
19758;SDS011;10038;42.662;23.278;2023-04-19T12:00:03;5.40;;;4.77;;
19758;SDS011;10038;42.662;23.278;2023-04-19T12:02:37;5.90;;;5.23;;
19758;SDS011;10038;42.662;23.278;2023-04-19T12:05:09;3.73;;;3.20;;
19758;SDS011;10038;42.662;23.278;2023-04-19T12:07:37;6.43;;;5.83;;
19758;SDS011;10038;42.662;23.278;2023-04-19T12:10:22;8.97;;;8.10;;
19758;SDS011;10038;42.662;23.278;2023-04-19T12:12:49;5.00;;;4.50;;
19758;SDS011;10038;42.662;23.278;2023-04-19T12:15:16;10.70;;;7.50;;
19758;SDS011;10038;42.662;23.278;2023-04-19T12:17:57;30.57;;;14.10;;
19758;SDS011;10038;42.662;23.278;2023-04-19T12:20:29;7.10;;;3.87;;
19758;SDS011;10038;42.662;23.278;2023-04-19T12:22:58;6.10;;;3.90;;
19758;SDS011;10038;42.662;23.278;2023-04-19T12:25:28;4.03;;;2.80;;
19758;SDS011;10038;42.662;23.278;2023-04-19T12:27:56;3.20;;;2.10;;
19758;SDS011;10038;42.662;23.278;2023-04-19T12:30:23;1.90;;;1.50;;
19758;SDS011;10038;42.662;23.278;2023-04-19T12:32:50;4.17;;;2.93;;
19758;SDS011;10038;42.662;23.278;2023-04-19T12:35:21;2.10;;;1.80;;
19758;SDS011;10038;42.662;23.278;2023-04-19T12:37:48;15.10;;;7.53;;
19758;SDS011;10038;42.662;23.278;2023-04-19T12:40:16;13.37;;;5.77;;
19758;SDS011;10038;42.662;23.278;2023-04-19T12:42:43;9.37;;;4.00;;
19758;SDS011;10038;42.662;23.278;2023-04-19T12:45:10;11.63;;;4.97;;
19758;SDS011;10038;42.662;23.278;2023-04-19T12:47:38;8.00;;;5.10;;
19758;SDS011;10038;42.662;23.278;2023-04-19T12:50:06;4.00;;;3.10;;
19758;SDS011;10038;42.662;23.278;2023-04-19T12:52:35;7.27;;;4.40;;
19758;SDS011;10038;42.662;23.278;2023-04-19T12:55:02;11.73;;;5.60;;
19758;SDS011;10038;42.662;23.278;2023-04-19T12:57:30;8.93;;;8.03;;
19758;SDS011;10038;42.662;23.278;2023-04-19T12:59:57;7.23;;;5.23;;
19758;SDS011;10038;42.662;23.278;2023-04-19T13:02:24;6.40;;;5.57;;
19758;SDS011;10038;42.662;23.278;2023-04-19T13:04:51;7.33;;;6.50;;
19758;SDS011;10038;42.662;23.278;2023-04-19T13:07:18;8.20;;;6.90;;
19758;SDS011;10038;42.662;23.278;2023-04-19T13:09:46;9.20;;;6.57;;
19758;SDS011;10038;42.662;23.278;2023-04-19T13:12:13;6.60;;;4.10;;
19758;SDS011;10038;42.662;23.278;2023-04-19T13:14:40;6.73;;;3.77;;
19758;SDS011;10038;42.662;23.278;2023-04-19T13:17:10;3.30;;;2.57;;
19758;SDS011;10038;42.662;23.278;2023-04-19T13:19:37;2.70;;;1.80;;
19758;SDS011;10038;42.662;23.278;2023-04-19T13:22:04;2.07;;;1.40;;
19758;SDS011;10038;42.662;23.278;2023-04-19T13:24:31;1.67;;;1.47;;
19758;SDS011;10038;42.662;23.278;2023-04-19T13:27:00;1.67;;;1.33;;
19758;SDS011;10038;42.662;23.278;2023-04-19T13:29:27;2.30;;;1.50;;
19758;SDS011;10038;42.662;23.278;2023-04-19T13:31:54;1.97;;;1.40;;
19758;SDS011;10038;42.662;23.278;2023-04-19T13:34:21;1.90;;;1.60;;
19758;SDS011;10038;42.662;23.278;2023-04-19T13:36:48;1.87;;;1.70;;
19758;SDS011;10038;42.662;23.278;2023-04-19T13:39:15;2.37;;;1.53;;
19758;SDS011;10038;42.662;23.278;2023-04-19T13:41:46;3.40;;;2.00;;
19758;SDS011;10038;42.662;23.278;2023-04-19T13:44:15;2.47;;;1.70;;
19758;SDS011;10038;42.662;23.278;2023-04-19T13:46:42;2.40;;;1.90;;
19758;SDS011;10038;42.662;23.278;2023-04-19T13:49:09;2.43;;;2.03;;
19758;SDS011;10038;42.662;23.278;2023-04-19T13:51:36;3.93;;;2.53;;
19758;SDS011;10038;42.662;23.278;2023-04-19T13:54:04;2.43;;;2.20;;
19758;SDS011;10038;42.662;23.278;2023-04-19T13:56:31;2.40;;;2.00;;
19758;SDS011;10038;42.662;23.278;2023-04-19T13:59:01;2.87;;;2.27;;
19758;SDS011;10038;42.662;23.278;2023-04-19T14:01:41;4.57;;;2.90;;
19758;SDS011;10038;42.662;23.278;2023-04-19T14:04:08;14.40;;;3.73;;
19758;SDS011;10038;42.662;23.278;2023-04-19T14:06:35;3.60;;;3.03;;
19758;SDS011;10038;42.662;23.278;2023-04-19T14:09:02;4.37;;;3.97;;
19758;SDS011;10038;42.662;23.278;2023-04-19T14:11:29;4.17;;;3.53;;
19758;SDS011;10038;42.662;23.278;2023-04-19T14:13:56;3.83;;;3.50;;
19758;SDS011;10038;42.662;23.278;2023-04-19T14:16:23;4.37;;;3.20;;
19758;SDS011;10038;42.662;23.278;2023-04-19T14:18:51;3.70;;;3.10;;
19758;SDS011;10038;42.662;23.278;2023-04-19T14:21:18;8.97;;;4.17;;
19758;SDS011;10038;42.662;23.278;2023-04-19T14:23:45;5.90;;;3.40;;
19758;SDS011;10038;42.662;23.278;2023-04-19T14:26:13;3.93;;;3.33;;
19758;SDS011;10038;42.662;23.278;2023-04-19T14:28:39;3.67;;;3.07;;
19758;SDS011;10038;42.662;23.278;2023-04-19T14:31:06;3.70;;;2.80;;
19758;SDS011;10038;42.662;23.278;2023-04-19T14:33:33;5.13;;;3.27;;
19758;SDS011;10038;42.662;23.278;2023-04-19T14:36:02;6.50;;;4.20;;
19758;SDS011;10038;42.662;23.278;2023-04-19T14:38:29;7.17;;;3.87;;
19758;SDS011;10038;42.662;23.278;2023-04-19T14:40:56;3.80;;;3.33;;
19758;SDS011;10038;42.662;23.278;2023-04-19T14:43:23;5.33;;;4.43;;
19758;SDS011;10038;42.662;23.278;2023-04-19T14:45:50;6.50;;;4.50;;